Aviation Weather View - Albury, NSW
Albury
METAR YMAY 270700Z 13006KT 9999 23/10 Q1014
ADVISORY INFORMATION ONLY.
Information and images sourced on a "best effort" basis from
our own station 2.7NM north of the field at 1016ft AMSL.
Weather information is NOT from the Albury Airport.

Contact Ross on 0409-578-660
Updated 0729Z (27-Oct-2021 at 18:29:01 local)
Temperature 21.5 Deg C
QNH is 1015
Humidity is 66% RH
Dewpoint is 14.9 Deg C
Estimated Cloudbase is 3700 feet amsl
Wind: 2 KT, gusting to 6 KT from 096 degrees magnetic (084 true)
Runway 07 Crosswind 1KT Right to Left
Runway 25 Crosswind 1KT Left to Right 2KT downwind
Wind last 10 minutes: Average 2 KT
Solar Insolation: 105 W/m^2

TWR: 123.25 SMC: 121.8 AWIS: 134.525 ATIS: 115.6/133.85 Map
How to interpret the wind rose
Wind Rose
Solar Radiation Decoded METAR data
Albury Airport (94896, YMAY)
WMO Index: 95896
ID Name: YMAY
Date/Time: 27-Oct-2021 0700 UTC
Lat/Lon: 36.07S 146.95E
Wind: 130 deg true at 06.0 knots
Temperature: 22.7 deg C
Dewpoint: 9.8 deg C
QNH: 1014.0
Rain since 9am: 0.0
Rain last 10 mins: 0.0
Visibility: -9999 metres
AutoVisibility: 10000 metres
Max Wind Gust last 10 mins: 07.0 knots

Calculated humidity: 43.9 %RH